sensor_id;sensor_type;location;lat;lon;timestamp;P1;durP1;ratioP1;P2;durP2;ratioP2
17510;SDS011;8873;48.818;9.422;2023-01-15T00:01:44;1.13;;;1.00;;
17510;SDS011;8873;48.818;9.422;2023-01-15T00:04:11;1.42;;;1.20;;
17510;SDS011;8873;48.818;9.422;2023-01-15T00:06:40;1.65;;;1.00;;
17510;SDS011;8873;48.818;9.422;2023-01-15T00:09:09;1.20;;;1.08;;
17510;SDS011;8873;48.818;9.422;2023-01-15T00:11:39;0.90;;;0.90;;
17510;SDS011;8873;48.818;9.422;2023-01-15T00:14:07;0.85;;;0.85;;
17510;SDS011;8873;48.818;9.422;2023-01-15T00:16:34;0.80;;;0.80;;
17510;SDS011;8873;48.818;9.422;2023-01-15T00:19:03;1.00;;;1.00;;
17510;SDS011;8873;48.818;9.422;2023-01-15T00:21:33;1.00;;;1.00;;
17510;SDS011;8873;48.818;9.422;2023-01-15T00:24:01;1.15;;;1.10;;
17510;SDS011;8873;48.818;9.422;2023-01-15T00:26:45;1.00;;;1.00;;
17510;SDS011;8873;48.818;9.422;2023-01-15T00:29:30;1.33;;;1.30;;
17510;SDS011;8873;48.818;9.422;2023-01-15T00:31:59;0.98;;;0.98;;
17510;SDS011;8873;48.818;9.422;2023-01-15T00:34:29;1.63;;;1.00;;
17510;SDS011;8873;48.818;9.422;2023-01-15T00:36:57;0.90;;;0.90;;
17510;SDS011;8873;48.818;9.422;2023-01-15T00:39:25;1.77;;;0.85;;
17510;SDS011;8873;48.818;9.422;2023-01-15T00:41:53;0.85;;;0.80;;
17510;SDS011;8873;48.818;9.422;2023-01-15T00:44:20;0.80;;;0.80;;
17510;SDS011;8873;48.818;9.422;2023-01-15T00:46:48;0.95;;;0.95;;
17510;SDS011;8873;48.818;9.422;2023-01-15T00:49:16;0.80;;;0.80;;
17510;SDS011;8873;48.818;9.422;2023-01-15T00:51:45;0.90;;;0.90;;
17510;SDS011;8873;48.818;9.422;2023-01-15T00:54:15;1.58;;;0.88;;
17510;SDS011;8873;48.818;9.422;2023-01-15T00:56:42;2.00;;;1.13;;
17510;SDS011;8873;48.818;9.422;2023-01-15T00:59:10;0.75;;;0.75;;
17510;SDS011;8873;48.818;9.422;2023-01-15T01:01:38;0.80;;;0.80;;
17510;SDS011;8873;48.818;9.422;2023-01-15T01:04:06;0.77;;;0.77;;
17510;SDS011;8873;48.818;9.422;2023-01-15T01:06:33;0.93;;;0.93;;
17510;SDS011;8873;48.818;9.422;2023-01-15T01:09:02;2.08;;;1.02;;
17510;SDS011;8873;48.818;9.422;2023-01-15T01:11:30;0.80;;;0.80;;
17510;SDS011;8873;48.818;9.422;2023-01-15T01:14:00;0.70;;;0.70;;
17510;SDS011;8873;48.818;9.422;2023-01-15T01:16:29;0.60;;;0.60;;
17510;SDS011;8873;48.818;9.422;2023-01-15T01:18:59;0.70;;;0.70;;
17510;SDS011;8873;48.818;9.422;2023-01-15T01:21:29;0.73;;;0.73;;
17510;SDS011;8873;48.818;9.422;2023-01-15T01:23:57;0.80;;;0.80;;
17510;SDS011;8873;48.818;9.422;2023-01-15T01:26:26;0.90;;;0.90;;
17510;SDS011;8873;48.818;9.422;2023-01-15T01:29:03;0.73;;;0.73;;
17510;SDS011;8873;48.818;9.422;2023-01-15T01:31:53;0.80;;;0.80;;
17510;SDS011;8873;48.818;9.422;2023-01-15T01:34:20;0.77;;;0.77;;
17510;SDS011;8873;48.818;9.422;2023-01-15T01:36:48;0.80;;;0.80;;
17510;SDS011;8873;48.818;9.422;2023-01-15T01:39:18;0.75;;;0.75;;
17510;SDS011;8873;48.818;9.422;2023-01-15T01:41:47;0.70;;;0.70;;
17510;SDS011;8873;48.818;9.422;2023-01-15T01:46:58;0.60;;;0.60;;
17510;SDS011;8873;48.818;9.422;2023-01-15T01:49:26;0.80;;;0.80;;
17510;SDS011;8873;48.818;9.422;2023-01-15T01:51:55;0.70;;;0.70;;
17510;SDS011;8873;48.818;9.422;2023-01-15T01:54:24;0.85;;;0.85;;
17510;SDS011;8873;48.818;9.422;2023-01-15T01:56:54;0.70;;;0.70;;
17510;SDS011;8873;48.818;9.422;2023-01-15T01:59:21;0.80;;;0.80;;
17510;SDS011;8873;48.818;9.422;2023-01-15T02:01:51;0.70;;;0.70;;
17510;SDS011;8873;48.818;9.422;2023-01-15T02:04:20;0.80;;;0.80;;
17510;SDS011;8873;48.818;9.422;2023-01-15T02:06:48;0.60;;;0.60;;
17510;SDS011;8873;48.818;9.422;2023-01-15T02:09:17;0.77;;;0.77;;
17510;SDS011;8873;48.818;9.422;2023-01-15T02:11:45;0.80;;;0.80;;
17510;SDS011;8873;48.818;9.422;2023-01-15T02:14:14;0.95;;;0.95;;
17510;SDS011;8873;48.818;9.422;2023-01-15T02:16:44;0.90;;;0.80;;
17510;SDS011;8873;48.818;9.422;2023-01-15T02:19:16;0.52;;;0.52;;
17510;SDS011;8873;48.818;9.422;2023-01-15T02:21:50;0.80;;;0.80;;
17510;SDS011;8873;48.818;9.422;2023-01-15T02:24:21;0.70;;;0.70;;
17510;SDS011;8873;48.818;9.422;2023-01-15T02:27:01;0.70;;;0.70;;
17510;SDS011;8873;48.818;9.422;2023-01-15T02:29:33;0.65;;;0.65;;
17510;SDS011;8873;48.818;9.422;2023-01-15T02:32:04;0.60;;;0.60;;
17510;SDS011;8873;48.818;9.422;2023-01-15T02:34:34;0.70;;;0.70;;
17510;SDS011;8873;48.818;9.422;2023-01-15T02:37:04;0.70;;;0.70;;
17510;SDS011;8873;48.818;9.422;2023-01-15T02:39:33;0.65;;;0.65;;
17510;SDS011;8873;48.818;9.422;2023-01-15T02:42:04;0.73;;;0.73;;
17510;SDS011;8873;48.818;9.422;2023-01-15T02:44:34;0.88;;;0.88;;
17510;SDS011;8873;48.818;9.422;2023-01-15T02:47:03;0.50;;;0.50;;
17510;SDS011;8873;48.818;9.422;2023-01-15T02:49:32;0.60;;;0.60;;
17510;SDS011;8873;48.818;9.422;2023-01-15T02:52:01;0.65;;;0.65;;
17510;SDS011;8873;48.818;9.422;2023-01-15T02:54:30;0.70;;;0.70;;
17510;SDS011;8873;48.818;9.422;2023-01-15T02:56:58;0.77;;;0.77;;
17510;SDS011;8873;48.818;9.422;2023-01-15T02:59:30;0.90;;;0.90;;
17510;SDS011;8873;48.818;9.422;2023-01-15T03:02:01;0.52;;;0.52;;
17510;SDS011;8873;48.818;9.422;2023-01-15T03:04:30;0.70;;;0.70;;
17510;SDS011;8873;48.818;9.422;2023-01-15T03:07:00;0.60;;;0.60;;
17510;SDS011;8873;48.818;9.422;2023-01-15T03:09:31;4.22;;;1.80;;
17510;SDS011;8873;48.818;9.422;2023-01-15T03:12:01;0.70;;;0.70;;
17510;SDS011;8873;48.818;9.422;2023-01-15T03:14:34;0.70;;;0.70;;
17510;SDS011;8873;48.818;9.422;2023-01-15T03:17:04;0.70;;;0.70;;
17510;SDS011;8873;48.818;9.422;2023-01-15T03:19:36;0.77;;;0.77;;
17510;SDS011;8873;48.818;9.422;2023-01-15T03:22:06;0.60;;;0.60;;
17510;SDS011;8873;48.818;9.422;2023-01-15T03:24:38;0.70;;;0.70;;
17510;SDS011;8873;48.818;9.422;2023-01-15T03:27:06;0.73;;;0.73;;
17510;SDS011;8873;48.818;9.422;2023-01-15T03:29:36;1.77;;;0.80;;
17510;SDS011;8873;48.818;9.422;2023-01-15T03:32:04;0.90;;;0.90;;
17510;SDS011;8873;48.818;9.422;2023-01-15T03:34:32;0.80;;;0.80;;
17510;SDS011;8873;48.818;9.422;2023-01-15T03:37:01;0.80;;;0.80;;
17510;SDS011;8873;48.818;9.422;2023-01-15T03:39:29;0.60;;;0.60;;
17510;SDS011;8873;48.818;9.422;2023-01-15T03:42:00;1.08;;;1.08;;
17510;SDS011;8873;48.818;9.422;2023-01-15T03:44:31;0.60;;;0.60;;
17510;SDS011;8873;48.818;9.422;2023-01-15T03:47:05;0.75;;;0.75;;
17510;SDS011;8873;48.818;9.422;2023-01-15T03:49:39;1.13;;;0.75;;
17510;SDS011;8873;48.818;9.422;2023-01-15T03:52:10;0.90;;;0.90;;
17510;SDS011;8873;48.818;9.422;2023-01-15T03:54:41;0.68;;;0.68;;
17510;SDS011;8873;48.818;9.422;2023-01-15T03:57:12;1.05;;;1.05;;
17510;SDS011;8873;48.818;9.422;2023-01-15T03:59:43;1.23;;;0.70;;
17510;SDS011;8873;48.818;9.422;2023-01-15T04:02:14;0.80;;;0.80;;
17510;SDS011;8873;48.818;9.422;2023-01-15T04:04:43;0.60;;;0.60;;
17510;SDS011;8873;48.818;9.422;2023-01-15T04:07:11;0.60;;;0.60;;
17510;SDS011;8873;48.818;9.422;2023-01-15T04:09:39;0.65;;;0.65;;
17510;SDS011;8873;48.818;9.422;2023-01-15T04:12:07;0.73;;;0.73;;
17510;SDS011;8873;48.818;9.422;2023-01-15T04:14:35;0.70;;;0.70;;
17510;SDS011;8873;48.818;9.422;2023-01-15T04:17:02;0.70;;;0.70;;
17510;SDS011;8873;48.818;9.422;2023-01-15T04:19:31;0.68;;;0.68;;
17510;SDS011;8873;48.818;9.422;2023-01-15T04:21:59;0.68;;;0.68;;
17510;SDS011;8873;48.818;9.422;2023-01-15T04:24:26;0.70;;;0.70;;
17510;SDS011;8873;48.818;9.422;2023-01-15T04:26:54;0.70;;;0.70;;
17510;SDS011;8873;48.818;9.422;2023-01-15T04:29:22;0.80;;;0.80;;
17510;SDS011;8873;48.818;9.422;2023-01-15T04:31:51;0.60;;;0.60;;
17510;SDS011;8873;48.818;9.422;2023-01-15T04:34:23;0.85;;;0.63;;
17510;SDS011;8873;48.818;9.422;2023-01-15T04:36:52;0.70;;;0.70;;
17510;SDS011;8873;48.818;9.422;2023-01-15T04:39:20;0.80;;;0.80;;
17510;SDS011;8873;48.818;9.422;2023-01-15T04:41:48;0.90;;;0.90;;
17510;SDS011;8873;48.818;9.422;2023-01-15T04:44:47;0.75;;;0.75;;
17510;SDS011;8873;48.818;9.422;2023-01-15T04:47:15;2.28;;;0.80;;
17510;SDS011;8873;48.818;9.422;2023-01-15T04:49:42;0.70;;;0.70;;
17510;SDS011;8873;48.818;9.422;2023-01-15T04:52:11;0.70;;;0.70;;
17510;SDS011;8873;48.818;9.422;2023-01-15T04:54:39;2.50;;;0.88;;
17510;SDS011;8873;48.818;9.422;2023-01-15T04:57:06;0.70;;;0.70;;
17510;SDS011;8873;48.818;9.422;2023-01-15T04:59:34;0.85;;;0.85;;
17510;SDS011;8873;48.818;9.422;2023-01-15T05:02:01;0.80;;;0.80;;
17510;SDS011;8873;48.818;9.422;2023-01-15T05:04:32;0.85;;;0.85;;
17510;SDS011;8873;48.818;9.422;2023-01-15T05:07:00;1.65;;;0.90;;
17510;SDS011;8873;48.818;9.422;2023-01-15T05:09:29;0.75;;;0.75;;
17510;SDS011;8873;48.818;9.422;2023-01-15T05:11:57;0.70;;;0.70;;
17510;SDS011;8873;48.818;9.422;2023-01-15T05:14:25;0.80;;;0.80;;
17510;SDS011;8873;48.818;9.422;2023-01-15T05:16:52;0.65;;;0.65;;
17510;SDS011;8873;48.818;9.422;2023-01-15T05:19:20;0.70;;;0.70;;
17510;SDS011;8873;48.818;9.422;2023-01-15T05:21:48;0.80;;;0.80;;
17510;SDS011;8873;48.818;9.422;2023-01-15T05:24:16;0.65;;;0.65;;
17510;SDS011;8873;48.818;9.422;2023-01-15T05:26:45;0.70;;;0.70;;
17510;SDS011;8873;48.818;9.422;2023-01-15T05:29:14;0.90;;;0.90;;
17510;SDS011;8873;48.818;9.422;2023-01-15T05:31:41;1.35;;;0.82;;
17510;SDS011;8873;48.818;9.422;2023-01-15T05:34:10;0.50;;;0.50;;
17510;SDS011;8873;48.818;9.422;2023-01-15T05:36:38;1.58;;;0.80;;
17510;SDS011;8873;48.818;9.422;2023-01-15T05:39:06;1.75;;;0.88;;
17510;SDS011;8873;48.818;9.422;2023-01-15T05:41:33;1.08;;;0.93;;
17510;SDS011;8873;48.818;9.422;2023-01-15T05:44:19;0.80;;;0.80;;
17510;SDS011;8873;48.818;9.422;2023-01-15T05:46:46;0.82;;;0.82;;
17510;SDS011;8873;48.818;9.422;2023-01-15T05:49:16;1.02;;;0.90;;
17510;SDS011;8873;48.818;9.422;2023-01-15T05:51:44;1.00;;;1.00;;
17510;SDS011;8873;48.818;9.422;2023-01-15T05:54:13;1.77;;;1.08;;
17510;SDS011;8873;48.818;9.422;2023-01-15T05:56:41;0.90;;;0.90;;
17510;SDS011;8873;48.818;9.422;2023-01-15T05:59:08;0.70;;;0.70;;
17510;SDS011;8873;48.818;9.422;2023-01-15T06:01:37;1.00;;;1.00;;
17510;SDS011;8873;48.818;9.422;2023-01-15T06:04:05;1.10;;;1.10;;
17510;SDS011;8873;48.818;9.422;2023-01-15T06:06:33;0.88;;;0.88;;
17510;SDS011;8873;48.818;9.422;2023-01-15T06:09:01;1.00;;;1.00;;
17510;SDS011;8873;48.818;9.422;2023-01-15T06:11:29;1.10;;;1.10;;
17510;SDS011;8873;48.818;9.422;2023-01-15T06:13:57;0.93;;;0.93;;
17510;SDS011;8873;48.818;9.422;2023-01-15T06:16:25;1.30;;;1.30;;
17510;SDS011;8873;48.818;9.422;2023-01-15T06:18:54;1.48;;;1.48;;
17510;SDS011;8873;48.818;9.422;2023-01-15T06:21:23;1.55;;;1.55;;
17510;SDS011;8873;48.818;9.422;2023-01-15T06:23:51;1.25;;;1.20;;
17510;SDS011;8873;48.818;9.422;2023-01-15T06:26:19;1.25;;;1.25;;
17510;SDS011;8873;48.818;9.422;2023-01-15T06:28:47;1.23;;;1.23;;
17510;SDS011;8873;48.818;9.422;2023-01-15T06:31:15;1.40;;;1.40;;
17510;SDS011;8873;48.818;9.422;2023-01-15T06:33:44;1.67;;;1.58;;
17510;SDS011;8873;48.818;9.422;2023-01-15T06:36:13;1.80;;;1.70;;
17510;SDS011;8873;48.818;9.422;2023-01-15T06:38:41;1.92;;;1.75;;
17510;SDS011;8873;48.818;9.422;2023-01-15T06:41:11;2.22;;;1.60;;
17510;SDS011;8873;48.818;9.422;2023-01-15T06:43:52;1.60;;;1.50;;
17510;SDS011;8873;48.818;9.422;2023-01-15T06:46:38;1.90;;;1.80;;
17510;SDS011;8873;48.818;9.422;2023-01-15T06:49:24;1.48;;;1.40;;
17510;SDS011;8873;48.818;9.422;2023-01-15T06:51:53;1.58;;;1.58;;
17510;SDS011;8873;48.818;9.422;2023-01-15T06:54:21;1.50;;;1.40;;
17510;SDS011;8873;48.818;9.422;2023-01-15T06:56:48;1.98;;;1.48;;
17510;SDS011;8873;48.818;9.422;2023-01-15T06:59:16;1.55;;;1.45;;
17510;SDS011;8873;48.818;9.422;2023-01-15T07:01:44;1.30;;;1.30;;
17510;SDS011;8873;48.818;9.422;2023-01-15T07:04:12;1.60;;;1.50;;
17510;SDS011;8873;48.818;9.422;2023-01-15T07:06:40;1.40;;;1.40;;
17510;SDS011;8873;48.818;9.422;2023-01-15T07:09:09;2.30;;;1.33;;
17510;SDS011;8873;48.818;9.422;2023-01-15T07:11:37;1.30;;;1.30;;
17510;SDS011;8873;48.818;9.422;2023-01-15T07:14:15;1.00;;;1.00;;
17510;SDS011;8873;48.818;9.422;2023-01-15T07:16:45;1.13;;;1.13;;
17510;SDS011;8873;48.818;9.422;2023-01-15T07:19:12;1.27;;;1.27;;
17510;SDS011;8873;48.818;9.422;2023-01-15T07:21:40;1.40;;;1.40;;
17510;SDS011;8873;48.818;9.422;2023-01-15T07:24:09;1.10;;;1.10;;
17510;SDS011;8873;48.818;9.422;2023-01-15T07:26:37;1.30;;;1.30;;
17510;SDS011;8873;48.818;9.422;2023-01-15T07:29:08;1.75;;;1.00;;
17510;SDS011;8873;48.818;9.422;2023-01-15T07:31:38;0.80;;;0.80;;
17510;SDS011;8873;48.818;9.422;2023-01-15T07:34:07;0.85;;;0.85;;
17510;SDS011;8873;48.818;9.422;2023-01-15T07:36:34;1.05;;;1.05;;
17510;SDS011;8873;48.818;9.422;2023-01-15T07:39:02;0.93;;;0.93;;
17510;SDS011;8873;48.818;9.422;2023-01-15T07:41:32;0.90;;;0.90;;
17510;SDS011;8873;48.818;9.422;2023-01-15T07:44:17;0.88;;;0.88;;
17510;SDS011;8873;48.818;9.422;2023-01-15T07:47:02;1.02;;;1.02;;
17510;SDS011;8873;48.818;9.422;2023-01-15T07:49:52;1.40;;;1.40;;
17510;SDS011;8873;48.818;9.422;2023-01-15T07:52:21;1.40;;;1.40;;
17510;SDS011;8873;48.818;9.422;2023-01-15T07:54:49;1.70;;;1.10;;
17510;SDS011;8873;48.818;9.422;2023-01-15T07:57:19;0.80;;;0.80;;
17510;SDS011;8873;48.818;9.422;2023-01-15T07:59:47;1.48;;;1.38;;
17510;SDS011;8873;48.818;9.422;2023-01-15T08:02:15;1.65;;;1.55;;
17510;SDS011;8873;48.818;9.422;2023-01-15T08:04:43;1.30;;;1.20;;
17510;SDS011;8873;48.818;9.422;2023-01-15T08:07:11;1.20;;;1.20;;
17510;SDS011;8873;48.818;9.422;2023-01-15T08:09:38;1.48;;;1.40;;
17510;SDS011;8873;48.818;9.422;2023-01-15T08:12:06;1.00;;;1.00;;
17510;SDS011;8873;48.818;9.422;2023-01-15T08:14:53;1.58;;;1.38;;
17510;SDS011;8873;48.818;9.422;2023-01-15T08:17:39;1.50;;;1.40;;
17510;SDS011;8873;48.818;9.422;2023-01-15T08:20:08;1.20;;;1.20;;
17510;SDS011;8873;48.818;9.422;2023-01-15T08:22:36;3.75;;;1.50;;
17510;SDS011;8873;48.818;9.422;2023-01-15T08:25:06;1.27;;;1.27;;
17510;SDS011;8873;48.818;9.422;2023-01-15T08:27:34;1.52;;;1.42;;
17510;SDS011;8873;48.818;9.422;2023-01-15T08:30:03;1.30;;;1.30;;
17510;SDS011;8873;48.818;9.422;2023-01-15T08:32:31;1.25;;;1.25;;
17510;SDS011;8873;48.818;9.422;2023-01-15T08:34:59;1.73;;;1.63;;
17510;SDS011;8873;48.818;9.422;2023-01-15T08:37:27;1.40;;;1.40;;
17510;SDS011;8873;48.818;9.422;2023-01-15T08:39:54;2.63;;;2.00;;
17510;SDS011;8873;48.818;9.422;2023-01-15T08:42:22;2.30;;;2.17;;
17510;SDS011;8873;48.818;9.422;2023-01-15T08:44:50;1.77;;;1.67;;
17510;SDS011;8873;48.818;9.422;2023-01-15T08:47:19;2.10;;;2.00;;
17510;SDS011;8873;48.818;9.422;2023-01-15T08:49:46;2.15;;;2.05;;
17510;SDS011;8873;48.818;9.422;2023-01-15T08:52:14;1.50;;;1.50;;
17510;SDS011;8873;48.818;9.422;2023-01-15T08:54:42;1.48;;;1.38;;
17510;SDS011;8873;48.818;9.422;2023-01-15T08:57:10;1.80;;;1.70;;
17510;SDS011;8873;48.818;9.422;2023-01-15T08:59:39;1.55;;;1.45;;
17510;SDS011;8873;48.818;9.422;2023-01-15T09:02:10;1.60;;;1.50;;
17510;SDS011;8873;48.818;9.422;2023-01-15T09:04:39;2.03;;;1.67;;
17510;SDS011;8873;48.818;9.422;2023-01-15T09:07:07;1.83;;;1.70;;
17510;SDS011;8873;48.818;9.422;2023-01-15T09:09:38;1.73;;;1.70;;
17510;SDS011;8873;48.818;9.422;2023-01-15T09:12:05;1.63;;;1.55;;
17510;SDS011;8873;48.818;9.422;2023-01-15T09:14:34;1.45;;;1.45;;
17510;SDS011;8873;48.818;9.422;2023-01-15T09:17:21;1.20;;;1.20;;
17510;SDS011;8873;48.818;9.422;2023-01-15T09:19:51;1.02;;;1.02;;
17510;SDS011;8873;48.818;9.422;2023-01-15T09:22:22;1.17;;;1.17;;
17510;SDS011;8873;48.818;9.422;2023-01-15T09:24:50;1.70;;;1.67;;
17510;SDS011;8873;48.818;9.422;2023-01-15T09:27:18;3.15;;;1.60;;
17510;SDS011;8873;48.818;9.422;2023-01-15T09:29:47;1.58;;;1.50;;
17510;SDS011;8873;48.818;9.422;2023-01-15T09:32:15;1.13;;;1.13;;
17510;SDS011;8873;48.818;9.422;2023-01-15T09:34:43;1.30;;;1.20;;
17510;SDS011;8873;48.818;9.422;2023-01-15T09:37:14;1.40;;;1.40;;
17510;SDS011;8873;48.818;9.422;2023-01-15T09:39:42;1.15;;;1.15;;
17510;SDS011;8873;48.818;9.422;2023-01-15T09:42:12;0.80;;;0.80;;
17510;SDS011;8873;48.818;9.422;2023-01-15T09:44:54;1.05;;;1.05;;
17510;SDS011;8873;48.818;9.422;2023-01-15T09:47:29;1.38;;;1.27;;
17510;SDS011;8873;48.818;9.422;2023-01-15T09:49:59;1.30;;;1.30;;
17510;SDS011;8873;48.818;9.422;2023-01-15T09:52:36;1.30;;;1.20;;
17510;SDS011;8873;48.818;9.422;2023-01-15T09:55:08;1.20;;;1.20;;
17510;SDS011;8873;48.818;9.422;2023-01-15T09:57:39;1.65;;;1.23;;
17510;SDS011;8873;48.818;9.422;2023-01-15T10:00:12;1.10;;;1.10;;
17510;SDS011;8873;48.818;9.422;2023-01-15T10:02:42;1.30;;;1.30;;
17510;SDS011;8873;48.818;9.422;2023-01-15T10:05:14;1.63;;;1.52;;
17510;SDS011;8873;48.818;9.422;2023-01-15T10:07:54;1.95;;;1.60;;
17510;SDS011;8873;48.818;9.422;2023-01-15T10:10:31;1.30;;;1.30;;
17510;SDS011;8873;48.818;9.422;2023-01-15T10:13:07;1.80;;;1.70;;
17510;SDS011;8873;48.818;9.422;2023-01-15T10:15:36;1.58;;;1.48;;
17510;SDS011;8873;48.818;9.422;2023-01-15T10:18:06;2.67;;;2.20;;
17510;SDS011;8873;48.818;9.422;2023-01-15T10:20:45;1.90;;;1.38;;
17510;SDS011;8873;48.818;9.422;2023-01-15T10:23:20;1.15;;;1.13;;
17510;SDS011;8873;48.818;9.422;2023-01-15T10:25:53;1.33;;;1.20;;
17510;SDS011;8873;48.818;9.422;2023-01-15T10:28:26;0.80;;;0.80;;
17510;SDS011;8873;48.818;9.422;2023-01-15T10:30:56;0.88;;;0.88;;
17510;SDS011;8873;48.818;9.422;2023-01-15T10:33:48;0.82;;;0.82;;
17510;SDS011;8873;48.818;9.422;2023-01-15T10:36:23;1.85;;;0.80;;
17510;SDS011;8873;48.818;9.422;2023-01-15T10:38:58;1.02;;;0.93;;
17510;SDS011;8873;48.818;9.422;2023-01-15T10:41:45;1.10;;;1.00;;
17510;SDS011;8873;48.818;9.422;2023-01-15T10:44:17;0.95;;;0.95;;
17510;SDS011;8873;48.818;9.422;2023-01-15T10:46:48;1.02;;;1.02;;
17510;SDS011;8873;48.818;9.422;2023-01-15T10:49:20;0.95;;;0.95;;
17510;SDS011;8873;48.818;9.422;2023-01-15T10:51:49;1.10;;;1.10;;
17510;SDS011;8873;48.818;9.422;2023-01-15T10:54:22;1.20;;;1.20;;
17510;SDS011;8873;48.818;9.422;2023-01-15T10:56:52;1.00;;;1.00;;
17510;SDS011;8873;48.818;9.422;2023-01-15T11:06:21;0.83;;;0.83;;
17510;SDS011;8873;48.818;9.422;2023-01-15T11:08:50;1.10;;;1.10;;
17510;SDS011;8873;48.818;9.422;2023-01-15T11:11:39;1.20;;;1.20;;
17510;SDS011;8873;48.818;9.422;2023-01-15T11:14:30;1.40;;;1.30;;
17510;SDS011;8873;48.818;9.422;2023-01-15T11:17:16;1.20;;;1.20;;
17510;SDS011;8873;48.818;9.422;2023-01-15T11:20:01;1.50;;;1.40;;
17510;SDS011;8873;48.818;9.422;2023-01-15T11:22:29;1.43;;;1.33;;
17510;SDS011;8873;48.818;9.422;2023-01-15T11:24:57;1.30;;;1.30;;
17510;SDS011;8873;48.818;9.422;2023-01-15T11:27:30;1.30;;;1.30;;
17510;SDS011;8873;48.818;9.422;2023-01-15T11:30:01;1.70;;;1.60;;
17510;SDS011;8873;48.818;9.422;2023-01-15T11:32:30;1.70;;;1.63;;
17510;SDS011;8873;48.818;9.422;2023-01-15T11:34:59;2.15;;;1.98;;
17510;SDS011;8873;48.818;9.422;2023-01-15T11:38:02;1.27;;;1.27;;
17510;SDS011;8873;48.818;9.422;2023-01-15T11:40:31;1.65;;;1.50;;
17510;SDS011;8873;48.818;9.422;2023-01-15T11:43:01;3.67;;;1.70;;
17510;SDS011;8873;48.818;9.422;2023-01-15T11:45:46;1.77;;;1.67;;
17510;SDS011;8873;48.818;9.422;2023-01-15T11:48:32;3.07;;;1.70;;
17510;SDS011;8873;48.818;9.422;2023-01-15T11:51:18;2.03;;;1.80;;
17510;SDS011;8873;48.818;9.422;2023-01-15T11:53:47;1.70;;;1.57;;
17510;SDS011;8873;48.818;9.422;2023-01-15T11:56:15;3.47;;;1.57;;
17510;SDS011;8873;48.818;9.422;2023-01-15T11:58:45;1.77;;;1.50;;
17510;SDS011;8873;48.818;9.422;2023-01-15T12:01:16;1.47;;;1.37;;
17510;SDS011;8873;48.818;9.422;2023-01-15T12:03:47;2.33;;;1.90;;
17510;SDS011;8873;48.818;9.422;2023-01-15T12:06:18;1.67;;;1.57;;
17510;SDS011;8873;48.818;9.422;2023-01-15T12:08:46;1.77;;;1.57;;
17510;SDS011;8873;48.818;9.422;2023-01-15T12:11:20;2.80;;;1.70;;
17510;SDS011;8873;48.818;9.422;2023-01-15T12:13:55;1.63;;;1.53;;
17510;SDS011;8873;48.818;9.422;2023-01-15T12:16:26;1.50;;;1.40;;
17510;SDS011;8873;48.818;9.422;2023-01-15T12:18:57;1.63;;;1.20;;
17510;SDS011;8873;48.818;9.422;2023-01-15T12:21:38;1.80;;;1.70;;
17510;SDS011;8873;48.818;9.422;2023-01-15T12:26:59;1.60;;;1.50;;
17510;SDS011;8873;48.818;9.422;2023-01-15T12:29:34;2.13;;;1.40;;
17510;SDS011;8873;48.818;9.422;2023-01-15T12:32:06;1.93;;;1.70;;
17510;SDS011;8873;48.818;9.422;2023-01-15T12:34:38;2.50;;;1.90;;
17510;SDS011;8873;48.818;9.422;2023-01-15T12:37:09;2.00;;;1.90;;
17510;SDS011;8873;48.818;9.422;2023-01-15T12:39:42;4.17;;;2.23;;
17510;SDS011;8873;48.818;9.422;2023-01-15T12:42:12;1.20;;;1.20;;
17510;SDS011;8873;48.818;9.422;2023-01-15T12:45:02;1.80;;;1.60;;
17510;SDS011;8873;48.818;9.422;2023-01-15T12:47:33;1.40;;;1.30;;
17510;SDS011;8873;48.818;9.422;2023-01-15T12:50:05;1.30;;;1.30;;
17510;SDS011;8873;48.818;9.422;2023-01-15T12:58:50;1.43;;;1.33;;
17510;SDS011;8873;48.818;9.422;2023-01-15T13:01:21;1.20;;;1.17;;
17510;SDS011;8873;48.818;9.422;2023-01-15T13:03:54;2.08;;;1.65;;
17510;SDS011;8873;48.818;9.422;2023-01-15T13:06:24;1.70;;;1.60;;
17510;SDS011;8873;48.818;9.422;2023-01-15T13:08:55;1.77;;;1.50;;
17510;SDS011;8873;48.818;9.422;2023-01-15T13:11:23;2.80;;;1.70;;
17510;SDS011;8873;48.818;9.422;2023-01-15T13:13:51;1.63;;;1.53;;
17510;SDS011;8873;48.818;9.422;2023-01-15T13:16:33;1.40;;;1.40;;
17510;SDS011;8873;48.818;9.422;2023-01-15T13:19:07;1.30;;;1.30;;
17510;SDS011;8873;48.818;9.422;2023-01-15T13:21:37;0.97;;;0.97;;
17510;SDS011;8873;48.818;9.422;2023-01-15T13:24:12;2.47;;;1.73;;
17510;SDS011;8873;48.818;9.422;2023-01-15T13:26:47;4.13;;;1.30;;
17510;SDS011;8873;48.818;9.422;2023-01-15T13:29:22;1.93;;;1.43;;
17510;SDS011;8873;48.818;9.422;2023-01-15T13:31:55;1.53;;;1.40;;
17510;SDS011;8873;48.818;9.422;2023-01-15T13:34:25;1.50;;;1.40;;
17510;SDS011;8873;48.818;9.422;2023-01-15T13:36:57;3.47;;;1.10;;
17510;SDS011;8873;48.818;9.422;2023-01-15T13:39:31;2.50;;;1.20;;
17510;SDS011;8873;48.818;9.422;2023-01-15T13:42:12;1.80;;;1.20;;
17510;SDS011;8873;48.818;9.422;2023-01-15T13:45:04;1.10;;;1.10;;
17510;SDS011;8873;48.818;9.422;2023-01-15T13:58:20;1.77;;;1.10;;
17510;SDS011;8873;48.818;9.422;2023-01-15T14:00:58;2.47;;;1.57;;
17510;SDS011;8873;48.818;9.422;2023-01-15T14:03:27;2.03;;;1.83;;
17510;SDS011;8873;48.818;9.422;2023-01-15T14:05:58;1.77;;;1.63;;
17510;SDS011;8873;48.818;9.422;2023-01-15T14:08:27;1.50;;;1.50;;
17510;SDS011;8873;48.818;9.422;2023-01-15T14:10:57;1.30;;;1.30;;
17510;SDS011;8873;48.818;9.422;2023-01-15T14:13:46;3.38;;;1.80;;
17510;SDS011;8873;48.818;9.422;2023-01-15T14:16:19;1.65;;;1.55;;
17510;SDS011;8873;48.818;9.422;2023-01-15T14:19:06;3.42;;;2.75;;
17510;SDS011;8873;48.818;9.422;2023-01-15T14:21:38;5.28;;;3.05;;
17510;SDS011;8873;48.818;9.422;2023-01-15T14:24:25;2.83;;;1.90;;
17510;SDS011;8873;48.818;9.422;2023-01-15T14:27:01;1.35;;;1.30;;
17510;SDS011;8873;48.818;9.422;2023-01-15T14:29:52;2.17;;;2.00;;
17510;SDS011;8873;48.818;9.422;2023-01-15T14:32:27;1.88;;;1.30;;
17510;SDS011;8873;48.818;9.422;2023-01-15T14:34:58;1.65;;;1.55;;
17510;SDS011;8873;48.818;9.422;2023-01-15T14:37:26;1.58;;;1.40;;
17510;SDS011;8873;48.818;9.422;2023-01-15T14:39:59;1.83;;;1.73;;
17510;SDS011;8873;48.818;9.422;2023-01-15T14:42:29;3.50;;;2.40;;
17510;SDS011;8873;48.818;9.422;2023-01-15T14:45:20;1.67;;;1.58;;
17510;SDS011;8873;48.818;9.422;2023-01-15T14:47:50;1.45;;;1.42;;
17510;SDS011;8873;48.818;9.422;2023-01-15T14:50:26;10.65;;;4.20;;
17510;SDS011;8873;48.818;9.422;2023-01-15T14:52:58;7.72;;;3.28;;
17510;SDS011;8873;48.818;9.422;2023-01-15T14:55:26;3.25;;;2.40;;
17510;SDS011;8873;48.818;9.422;2023-01-15T14:57:55;5.45;;;3.35;;
17510;SDS011;8873;48.818;9.422;2023-01-15T15:00:28;3.40;;;1.73;;
17510;SDS011;8873;48.818;9.422;2023-01-15T15:02:57;7.20;;;4.43;;
17510;SDS011;8873;48.818;9.422;2023-01-15T15:05:26;4.40;;;3.60;;
17510;SDS011;8873;48.818;9.422;2023-01-15T15:07:55;14.32;;;5.80;;
17510;SDS011;8873;48.818;9.422;2023-01-15T15:10:23;8.95;;;4.47;;
17510;SDS011;8873;48.818;9.422;2023-01-15T15:12:53;10.98;;;4.60;;
17510;SDS011;8873;48.818;9.422;2023-01-15T15:15:26;2.33;;;1.95;;
17510;SDS011;8873;48.818;9.422;2023-01-15T15:17:58;4.63;;;2.22;;
17510;SDS011;8873;48.818;9.422;2023-01-15T15:20:40;6.75;;;3.70;;
17510;SDS011;8873;48.818;9.422;2023-01-15T15:23:11;8.82;;;5.03;;
17510;SDS011;8873;48.818;9.422;2023-01-15T15:25:41;5.10;;;3.60;;
17510;SDS011;8873;48.818;9.422;2023-01-15T15:28:10;5.22;;;3.85;;
17510;SDS011;8873;48.818;9.422;2023-01-15T15:30:41;5.60;;;2.88;;
17510;SDS011;8873;48.818;9.422;2023-01-15T15:33:13;2.10;;;1.83;;
17510;SDS011;8873;48.818;9.422;2023-01-15T15:35:42;2.60;;;2.30;;
17510;SDS011;8873;48.818;9.422;2023-01-15T15:38:13;5.20;;;1.83;;
17510;SDS011;8873;48.818;9.422;2023-01-15T15:40:43;1.50;;;1.40;;
17510;SDS011;8873;48.818;9.422;2023-01-15T15:43:12;1.83;;;1.58;;
17510;SDS011;8873;48.818;9.422;2023-01-15T15:49:05;5.03;;;1.70;;
17510;SDS011;8873;48.818;9.422;2023-01-15T15:51:39;2.72;;;1.55;;
17510;SDS011;8873;48.818;9.422;2023-01-15T15:54:16;10.70;;;4.80;;
17510;SDS011;8873;48.818;9.422;2023-01-15T15:56:52;5.57;;;3.40;;
17510;SDS011;8873;48.818;9.422;2023-01-15T15:59:27;1.92;;;1.80;;